This is the latest recevied weather packets stored in our database for station/object N6WDO. If no packets are shown the sender has not sent any weather packets the latest 10 day(s).
| Time | Temp. | Humidity | Pressure | Rain* | Wind** | Luminosity | Snow |
|---|---|---|---|---|---|---|---|
| 1778101710 | 22.22° C | 53% | 1020.3 hPa | 0 mm | - | 701 W/m² | - |
| 1778101407 | 22.22° C | 51% | 1020.6 hPa | 0 mm | - | 703 W/m² | - |
| 1778101104 | 22.22° C | 52% | 1020.6 hPa | 0 mm | - | 709 W/m² | - |
| 1778100800 | 21.67° C | 53% | 1020.5 hPa | 0 mm | - | 714 W/m² | - |
| 1778100497 | 20.56° C | 55% | 1020.5 hPa | 0 mm | - | 722 W/m² | - |
| 1778100195 | 21.11° C | 53% | 1020.5 hPa | 0 mm | - | 732 W/m² | - |
| 1778099892 | 21.67° C | 52% | 1020.6 hPa | 0 mm | - | 731 W/m² | - |
| 1778099589 | 21.67° C | 53% | 1020.5 hPa | 0 mm | - | 735 W/m² | - |
| 1778099286 | 21.67° C | 54% | 1020.6 hPa | 0 mm | - | 755 W/m² | - |
| 1778098983 | 20.56° C | 55% | 1020.9 hPa | 0 mm | - | 752 W/m² | - |
| 1778098679 | 20° C | 56% | 1020.8 hPa | 0 mm | - | 786 W/m² | - |
| 1778098377 | 20.56° C | 55% | 1021.1 hPa | 0 mm | - | 809 W/m² | - |
| 1778098074 | 21.67° C | 52% | 1021.1 hPa | 0 mm | - | 587 W/m² | - |
| 1778097770 | 20.56° C | 56% | 1020.9 hPa | 0 mm | - | 850 W/m² | - |
| 1778097466 | 20° C | 55% | 1020.9 hPa | 0 mm | - | 903 W/m² | - |
| 1778097162 | 20.56° C | 55% | 1021.1 hPa | 0 mm | - | 183 W/m² | - |
| 1778096860 | 20.56° C | 55% | 1021.1 hPa | 0 mm | - | 499 W/m² | - |
| 1778096556 | 21.11° C | 56% | 1021.1 hPa | 0 mm | - | 275 W/m² | - |
| 1778096254 | 20.56° C | 55% | 1021.2 hPa | 0 mm | - | 802 W/m² | - |
| 1778095951 | 19.44° C | 58% | 1021.1 hPa | 0 mm | - | 780 W/m² | - |
| 1778095647 | 20.56° C | 55% | 1021.1 hPa | 0 mm | - | 456 W/m² | - |
| 1778095344 | 20° C | 57% | 1021.3 hPa | 0 mm | - | 816 W/m² | - |
| 1778095041 | 20° C | 58% | 1021.2 hPa | 0 mm | - | 237 W/m² | - |
| 1778094737 | 20.56° C | 56% | 1021.2 hPa | 0 mm | - | 423 W/m² | - |
| 1778094435 | 20° C | 56% | 1021.3 hPa | 0 mm | - | 486 W/m² | - |
* Rain latest hour (hover to see other rain measurements)
** Current wind speed in m/s (hover to see current wind gust speed)